createdAt,value
2023-07-08T00:34:13.462Z,5.80
2023-07-08T00:54:53.515Z,5.57
2023-07-08T01:53:23.042Z,6.43
2023-07-08T02:58:46.730Z,6.60
2023-07-08T03:13:54.145Z,7.00
2023-07-08T03:31:32.683Z,6.50
2023-07-08T04:04:16.132Z,6.05
2023-07-08T05:02:14.445Z,5.95
2023-07-08T05:25:07.944Z,6.68
2023-07-08T05:45:20.685Z,7.20
2023-07-08T07:52:25.132Z,6.15
2023-07-08T07:54:56.821Z,5.53
2023-07-08T08:08:23.826Z,5.60
2023-07-08T08:39:00.412Z,4.95
2023-07-08T09:10:26.437Z,4.97
2023-07-08T09:26:36.865Z,5.05
2023-07-08T09:34:13.854Z,5.40
2023-07-08T09:36:44.151Z,4.90
2023-07-08T09:54:25.977Z,4.47
2023-07-08T09:57:11.016Z,4.90
2023-07-08T10:17:55.729Z,4.68
2023-07-08T10:20:25.127Z,4.45
2023-07-08T10:25:35.624Z,5.15
2023-07-08T10:28:10.699Z,4.75
2023-07-08T10:30:41.563Z,4.50
2023-07-08T10:33:31.543Z,4.88
2023-07-08T10:36:04.282Z,4.75
2023-07-08T10:38:43.674Z,4.70
2023-07-08T10:46:28.650Z,4.97
2023-07-08T10:49:02.678Z,4.93
2023-07-08T10:51:35.518Z,4.95
2023-07-08T10:59:49.429Z,4.93
2023-07-08T11:05:19.657Z,5.32
2023-07-08T11:07:49.836Z,4.82
2023-07-08T11:10:20.081Z,4.95
2023-07-08T11:12:50.026Z,4.95
2023-07-08T11:15:23.935Z,5.00
2023-07-08T11:17:53.681Z,4.72
2023-07-08T11:20:24.792Z,4.68
2023-07-08T11:22:55.297Z,4.85
2023-07-08T11:27:55.039Z,5.07
2023-07-08T11:30:27.789Z,4.97
2023-07-08T11:32:59.058Z,4.93
2023-07-08T11:35:30.848Z,5.38
2023-07-08T11:38:00.551Z,5.20
2023-07-08T11:40:29.902Z,5.25
2023-07-08T11:43:03.959Z,5.50
2023-07-08T11:45:37.072Z,5.25
2023-07-08T11:48:10.191Z,5.13
2023-07-08T11:50:40.563Z,4.95
2023-07-08T11:53:10.636Z,5.40
2023-07-08T11:55:40.279Z,5.93
2023-07-08T11:58:12.418Z,5.60
2023-07-08T12:00:44.355Z,5.90
2023-07-08T12:03:23.429Z,4.88
2023-07-08T12:05:52.849Z,5.32
2023-07-08T12:08:22.531Z,4.65
2023-07-08T12:10:52.838Z,4.38
2023-07-08T12:13:23.260Z,5.10
2023-07-08T12:18:26.196Z,5.25
2023-07-08T12:20:56.395Z,5.20
2023-07-08T12:25:56.460Z,5.00
2023-07-08T12:30:58.705Z,5.25
2023-07-08T12:33:32.125Z,5.03
2023-07-08T12:36:01.444Z,5.30
2023-07-08T12:38:31.736Z,5.15
2023-07-08T12:41:01.584Z,5.22
2023-07-08T12:43:31.092Z,4.97
2023-07-08T12:46:00.476Z,4.90
2023-07-08T12:48:32.417Z,5.07
2023-07-08T12:51:02.022Z,5.10
2023-07-08T12:53:33.193Z,4.97
2023-07-08T12:56:02.888Z,4.72
2023-07-08T12:58:33.393Z,5.25
2023-07-08T13:01:04.635Z,5.07
2023-07-08T13:03:37.676Z,4.90
2023-07-08T13:06:07.229Z,4.15
2023-07-08T13:08:38.413Z,4.80
2023-07-08T13:11:07.978Z,5.32
2023-07-08T13:13:38.429Z,5.30
2023-07-08T13:16:08.111Z,4.90
2023-07-08T13:18:40.496Z,5.30
2023-07-08T13:26:15.637Z,4.90
2023-07-08T13:28:46.399Z,5.22
2023-07-08T13:31:23.061Z,4.30
2023-07-08T13:33:56.853Z,5.60
2023-07-08T13:36:27.201Z,5.00
2023-07-08T13:43:56.245Z,4.80
2023-07-08T13:46:35.042Z,4.57
2023-07-08T13:49:12.028Z,4.97
2023-07-08T13:51:41.376Z,5.18
2023-07-08T13:54:17.386Z,4.95
2023-07-08T13:56:46.920Z,4.90
2023-07-08T13:59:19.253Z,4.73
2023-07-08T14:01:48.755Z,4.57
2023-07-08T14:04:21.805Z,4.60
2023-07-08T14:06:51.124Z,4.85
2023-07-08T14:09:21.714Z,4.78
2023-07-08T14:11:52.047Z,4.80
2023-07-08T14:19:25.191Z,4.93
2023-07-08T14:21:55.085Z,4.47
2023-07-08T14:24:24.502Z,4.63
2023-07-08T14:26:53.910Z,4.73
2023-07-08T14:29:23.268Z,4.70
2023-07-08T14:31:52.673Z,4.90
2023-07-08T14:36:56.012Z,4.85
2023-07-08T14:39:25.402Z,4.78
2023-07-08T14:41:54.779Z,4.88
2023-07-08T14:46:56.328Z,4.40
2023-07-08T14:49:28.231Z,4.47
2023-07-08T14:54:27.253Z,4.43
2023-07-08T14:56:56.994Z,4.20
2023-07-08T14:59:26.662Z,4.35
2023-07-08T15:01:56.313Z,4.43
2023-07-08T15:04:28.243Z,4.40
2023-07-08T15:06:58.484Z,4.32
2023-07-08T15:09:27.837Z,4.03
2023-07-08T15:11:57.142Z,4.50
2023-07-08T15:14:27.379Z,4.45
2023-07-08T15:16:56.797Z,4.03
2023-07-08T15:19:29.763Z,4.50
2023-07-08T15:22:01.567Z,4.00
2023-07-08T15:24:30.982Z,4.20
2023-07-08T15:27:00.478Z,4.38
2023-07-08T15:29:29.821Z,4.03
2023-07-08T15:31:59.196Z,4.03
2023-07-08T15:34:31.715Z,4.28
2023-07-08T15:37:01.540Z,4.25
2023-07-08T15:42:00.516Z,4.13
2023-07-08T15:44:29.868Z,4.47
2023-07-08T15:46:59.259Z,4.15
2023-07-08T15:49:31.732Z,4.30
2023-07-08T15:52:01.088Z,4.20
2023-07-08T15:54:30.570Z,4.55
2023-07-08T15:56:59.934Z,4.55
2023-07-08T15:59:29.732Z,4.20
2023-07-08T16:04:32.739Z,4.03
2023-07-08T16:07:02.250Z,4.35
2023-07-08T16:09:31.673Z,4.10
2023-07-08T16:12:01.019Z,3.78
2023-07-08T16:17:00.140Z,4.00
2023-07-08T16:19:33.824Z,3.72
2023-07-08T16:22:03.225Z,3.72
2023-07-08T16:24:32.664Z,3.70
2023-07-08T16:27:01.983Z,3.83
2023-07-08T16:32:01.176Z,3.63
2023-07-08T16:34:33.270Z,3.60
2023-07-08T16:37:02.668Z,3.10
2023-07-08T16:39:32.265Z,2.85
2023-07-08T16:42:01.635Z,2.80
2023-07-08T16:44:30.992Z,2.92
2023-07-08T16:47:00.521Z,2.92
2023-07-08T16:49:29.954Z,3.10
2023-07-08T16:52:01.889Z,2.72
2023-07-08T16:54:31.265Z,2.92
2023-07-08T16:57:00.621Z,3.05
2023-07-08T16:59:30.004Z,2.90
2023-07-08T17:01:59.448Z,3.10
2023-07-08T17:04:28.915Z,3.10
2023-07-08T17:06:58.279Z,3.25
2023-07-08T17:09:30.236Z,3.25
2023-07-08T17:11:59.565Z,2.80
2023-07-08T17:14:28.911Z,3.00
2023-07-08T17:16:58.294Z,2.97
2023-07-08T17:19:27.711Z,2.92
2023-07-08T17:21:57.079Z,3.20
2023-07-08T17:24:26.939Z,3.08
2023-07-08T17:29:29.208Z,2.85
2023-07-08T17:31:58.598Z,3.28
2023-07-08T17:36:58.913Z,3.03
2023-07-08T17:39:28.282Z,2.92
2023-07-08T17:49:29.477Z,2.77
2023-07-08T17:54:32.050Z,3.20
2023-07-08T17:57:03.965Z,2.95
2023-07-08T17:59:33.368Z,2.90
2023-07-08T18:04:32.923Z,3.20
2023-07-08T18:07:02.258Z,3.10
2023-07-08T18:09:31.618Z,3.00
2023-07-08T18:14:33.319Z,2.90
2023-07-08T18:17:02.689Z,2.75
2023-07-08T18:19:32.022Z,2.92
2023-07-08T18:22:01.386Z,3.05
2023-07-08T18:27:00.445Z,3.08
2023-07-08T18:29:32.390Z,2.78
2023-07-08T18:32:01.873Z,2.95
2023-07-08T18:34:31.277Z,3.00
2023-07-08T18:37:01.935Z,3.33
2023-07-08T18:42:00.503Z,3.33
2023-07-08T18:44:33.210Z,3.03
2023-07-08T18:47:05.265Z,3.05
2023-07-08T18:49:34.804Z,3.35
2023-07-08T18:54:34.709Z,3.10
2023-07-08T18:57:04.063Z,3.30
2023-07-08T18:59:36.357Z,3.08
2023-07-08T19:02:05.799Z,2.65
2023-07-08T19:04:35.148Z,2.63
2023-07-08T19:07:04.542Z,2.67
2023-07-08T19:09:35.042Z,2.67
2023-07-08T19:12:04.435Z,3.15
2023-07-08T19:14:36.381Z,3.63
2023-07-08T19:17:05.877Z,3.55
2023-07-08T19:19:35.205Z,3.72
2023-07-08T19:22:04.744Z,3.47
2023-07-08T19:24:38.079Z,3.38
2023-07-08T19:27:08.130Z,3.40
2023-07-08T19:29:40.036Z,3.22
2023-07-08T19:32:10.908Z,3.47
2023-07-08T19:34:40.740Z,3.45
2023-07-08T19:37:11.947Z,3.50
2023-07-08T19:39:41.547Z,3.40
2023-07-08T19:42:12.635Z,3.30
2023-07-08T19:44:44.559Z,3.40
2023-07-08T19:47:14.337Z,3.72
2023-07-08T19:52:13.715Z,3.50
2023-07-08T19:54:43.036Z,3.70
2023-07-08T19:57:12.981Z,3.65
2023-07-08T19:59:45.027Z,3.50
2023-07-08T20:02:15.861Z,3.13
2023-07-08T20:04:49.276Z,3.72
2023-07-08T20:07:19.110Z,3.75
2023-07-08T20:12:18.134Z,3.47
2023-07-08T20:14:50.040Z,3.45
2023-07-08T20:17:19.447Z,3.28
2023-07-08T20:19:48.846Z,3.60
2023-07-08T20:22:18.857Z,3.58
2023-07-08T20:24:48.203Z,3.42
2023-07-08T20:27:17.529Z,3.63
2023-07-08T20:29:46.924Z,3.05
2023-07-08T20:32:19.439Z,3.40
2023-07-08T20:34:48.789Z,3.70
2023-07-08T20:37:18.115Z,3.80
2023-07-08T20:39:47.475Z,3.90
2023-07-08T20:42:16.954Z,3.47
2023-07-08T20:44:46.581Z,3.60
2023-07-08T20:47:19.518Z,3.50
2023-07-08T20:52:19.788Z,3.83
2023-07-08T20:57:20.795Z,3.30
2023-07-08T20:59:50.525Z,3.33
2023-07-08T21:07:29.350Z,3.60
2023-07-08T21:14:58.578Z,3.30
2023-07-08T21:35:10.712Z,3.22
2023-07-08T21:40:12.171Z,3.10
2023-07-08T21:42:41.561Z,3.35
2023-07-08T21:47:49.522Z,3.25
2023-07-08T22:07:53.000Z,3.25
2023-07-08T22:20:30.160Z,3.03
